Shoshone, California Weather observations

Data are for observation ending at time listed.
 Day   Time    Ave.   Ave.  Ave.  Vector   Max.   Stn.    Total    Solar   Ave.  
  of    of     Air    Rel.  Wind   Wind    Wind   Baro.  Precip.   Rad.    Soil  
Year   Day     Temp.  Hum.  Speed  Dir.    Gust   Pres.                    Temp. 
2026   (PST)    F      %     mph   deg.    mph     mb.     in.     W/m2     F   
------------------------------------------------------------------------------
 123    1:10   58.3    23    1.5   339      3.2    963     0.00       0    39.4
 123    1:20   58.7    22    0.7   327      2.1    963     0.00       0    38.1
 123    1:30   57.6    24    0.7   323      2.6    963     0.00       0    36.9
 123    1:40   57.8    23    0.8    62      2.7    963     0.00       0    35.6
 123    1:50   58.1    24    0.8   114      2.3    963     0.00       0    34.6
 123    2:00   58.1    22    0.4   109      2.5    963     0.00       0    33.8
 123    2:10   58.0    22    1.2    85      2.9    963     0.00       0    33.2
 123    2:20   57.4    23    0.5   118      1.9    963     0.00       0    32.8
 123    2:30   57.7    21    0.9    94      2.0    963     0.00       0    32.3
 123    2:40   58.2    20    1.5    67      3.8    963     0.00       0    32.0
 123    2:50   58.7    20    1.6    86      4.5    963     0.00       0    31.9
 123    3:00   57.5    23    1.2   349      3.4    963     0.00       0    32.0
 123    3:10   53.4    30    1.5   309      2.9    963     0.00       0    31.8
 123    3:20   52.5    31    1.3   339      2.0    963     0.00       0    31.0
 123    3:30   54.4    28    0.4     4      1.4    963     0.00       0    29.9
 123    3:40   54.8    29    0.2    73      0.9    963     0.00       0    29.0
 123    3:50   55.6    28    0.2    72      0.9    963     0.00       0    28.3
 123    4:00   55.0    29    0.3    76      2.0    963     0.00       0    27.9
 123    4:10   54.4    32    0.4   321      1.7    963     0.00       0    27.5
 123    4:20   53.0    34    0.7    37      2.1    963     0.00       0    27.1
 123    4:30   53.7    33    0.3    50      1.3    963     0.00       0    26.7
 123    4:40   53.6    33    0.4   256      2.0    963     0.00       0    26.4
 123    4:50   52.9    33    1.0   319      1.8    964     0.00       7    26.0
 123    5:00   53.2    34    0.6    30      1.5    964     0.00       7    25.7
 123    5:10   53.1    32    1.4   319      3.3    964     0.00      15    25.5
 123    5:20   51.4    35    1.6   318      3.6    964     0.00      20    25.5
 123    5:30   50.6    37    1.3   318      2.3    964     0.00      26    25.4
 123    5:40   51.2    36    1.6   318      2.9    964     0.00      71    25.2
 123    5:50   55.6    28    0.6   278      1.5    964     0.00     129    25.3
 123    6:00   59.6    25    1.0    97      1.8    964     0.00     163    26.6
 123    6:10   61.4    24    1.2    98      3.6    964     0.00     199    29.3
 123    6:20   61.7    18    3.2    84      5.1    964     0.00     232    32.8
 123    6:30   63.8    18    1.4    90      3.6    964     0.00     266    36.8
 123    6:40   67.8    16    0.3    88      1.4    964     0.00     306    41.0
 123    6:50   71.2    14    0.6    37      1.6    964     0.00     387    45.4
 123    7:00   71.2    15    0.9    60      1.8    964     0.00     436    50.3
 123    7:10   71.1    15    1.2   302      2.9    965     0.00     320    55.3
 123    7:20   70.5    15    1.2   316      2.5    964     0.00     291    59.3
 123    7:30   72.4    15    1.1   278      2.6    964     0.00     448    62.5
 123    7:40   74.2    15    0.7   133      2.0    964     0.00     435    66.0
 123    7:50   74.9    15    1.1   187      2.6    964     0.00     448    69.4
 123    8:00   76.2    15    0.9   191      2.3    964     0.00     446    72.5
 123    8:10   76.3    15    1.0   201      2.3    964     0.00     436    75.1
 123    8:20   77.1    14    1.1   193      2.0    964     0.00     479    77.1
 123    8:30   79.2    13    0.5   166      1.8    964     0.00     666    79.1
 123    8:40   81.4    12    0.8   287      2.1    964     0.00     683    81.6
 123    8:50   82.5    12    0.9   326      2.5    964     0.00     712    84.5
 123    9:00   84.2    11    1.0   284      2.9    964     0.00     737    87.4
 123    9:10   85.2    11    1.0   355      2.9    964     0.00     762    90.3
 123    9:20   86.3    11    1.4   336      3.4    964     0.00     787    93.0
 123    9:30   86.3    11    2.1    60      4.5    963     0.00     812    95.5
 123    9:40   86.9    11    1.5    79      4.1    963     0.00     836    97.4
 123    9:50   88.5    10    1.4   120      4.9    963     0.00     880    99.2
 123   10:00   88.0    10    2.5   109      7.1    963     0.00     779    100.8
 123   10:10   88.3    10    3.0   106      8.3    963     0.00     915    101.9
 123   10:20   87.9    11    3.9   177     10.0    963     0.00     833    102.6
 123   10:30   88.9    11    3.9   190     10.4    963     0.00     940    102.6
 123   10:40   89.3    11    4.1   164     10.0    962     0.00     941    102.6
 123   10:50   89.5    11    2.9   155      9.6    962     0.00     956    102.4
 123   11:00   90.8    11    4.2   175     14.8    962     0.00     960    102.1
 123   11:10   90.8    11    4.4   191     11.2    962     0.00     956    101.9
 123   11:20   91.5    10    4.0   172     13.2    962     0.00     977    101.7
 123   11:30   90.5    10    8.8   185     20.2    962     0.00     974    101.4
 123   11:40   91.5    10    4.1   167     12.3    961     0.00     968    100.9
 123   11:50   91.8    10    6.3   184     20.8    961     0.00     962    100.6
 123   12:00   92.6    10    7.5   172     20.6    961     0.00     957    100.4
 123   12:10   92.2    10    7.9   176     22.6    961     0.00     881    100.4
 123   12:20   92.2    10   10.6   176     23.2    961     0.00     956    100.3
 123   12:30   92.6    10    6.9   167     22.7    961     0.00     960    100.2
 123   12:40   92.0    10   10.9   177     25.5    961     0.00     951    100.6
 123   12:50   92.7    10    8.5   172     19.7    960     0.00     976    101.0
 123   13:00   92.4    10   12.9   181     22.5    960     0.00     961    101.9
 123   13:10   92.1    10   11.8   185     22.2    960     0.00     969    102.5
 123   13:20   94.1     9    5.3   170     15.6    960     0.00     892    103.0
 123   13:30   92.7    10    9.2   177     18.3    960     0.00     649    103.9
 123   13:40   91.8    10    9.8   184     17.3    959     0.00     588    103.7
 123   13:50   93.5     9    6.8   181     16.3    959     0.00     876    103.0
 123   14:00   93.5    10    5.2   166     11.8    959     0.00     685    103.2
 123   14:10   93.4    10    9.3   178     21.0    959     0.00     644    103.7
 123   14:20   91.2    10    4.7   172     12.4    958     0.00     203    103.5
 123   14:30   90.5    10    9.0   181     20.5    958     0.00     200    101.8
 123   14:40   90.1    10    3.1   164     11.5    958     0.00     168    99.5
 123   14:50   89.3    11    7.3   173     17.9    958     0.00     105    97.3
 123   15:00   89.6    11    4.5   174     13.8    958     0.00     411    94.9
 123   15:10   92.7    10    9.8   176     26.8    958     0.00     645    94.1
 123   15:20   91.9    10   17.7   185     25.3    958     0.00     632    95.3
 123   15:30   91.4    10   11.4   186     20.2    958     0.00     537    96.3
 123   15:40   91.9    11    9.2   215     20.6    958     0.00     613    97.1
 123   15:50   91.7    11   12.4   222     22.7    958     0.00     618    98.1
 123   16:00   91.3    11   10.0   226     21.9    958     0.00     526    98.8
 123   16:10   90.2    11    9.0   212     18.1    958     0.00     445    98.9
 123   16:20   90.1    11   10.8   221     21.9    958     0.00     436    98.4
 123   16:30   89.3    10   12.8   234     25.1    958     0.00     382    97.8
 123   16:40   88.8    10   12.9   230     24.2    958     0.00     345    96.7
 123   16:50   88.9    10   10.8   229     19.0    958     0.00     310    95.5
 123   17:00   88.9    10    8.2   234     18.5    958     0.00     279    94.4
 123   17:10   88.4    10   10.3   227     21.7    958     0.00     237    93.5
 123   17:20   87.7    11   11.5   232     20.6    958     0.00     201    92.5
 123   17:30   87.3    11   11.5   232     22.0    958     0.00     166    91.3
 123   17:40   86.3    12   10.4   215     19.6    958     0.00     138    90.1
 123   17:50   85.9    11    9.4   219     18.3    958     0.00     110    88.7
 123   18:00   85.2    12    8.8   214     18.4    958     0.00      78    87.2
 123   18:10   84.1    13    8.0   197     17.7    958     0.00      40    85.6
 123   18:20   83.2    14   10.1   193     22.1    958     0.00      26    83.8
 123   18:30   82.2    17   12.2   189     21.1    958     0.00      12    81.8
 123   18:40   81.2    19   13.4   188     23.3    958     0.00       4    79.8
 123   18:50   80.6    19   10.1   191     19.6    959     0.00       0    77.8
 123   19:00   79.8    20    8.9   189     15.8    959     0.00       0    75.9
 123   19:10   79.0    21   10.7   191     18.3    959     0.00       0    74.1
 123   19:20   78.4    22   13.1   189     21.0    959     0.00       0    72.4
 123   19:30   77.7    24   13.5   189     24.1    959     0.00       0    71.0
 123   19:40   77.1    25   11.5   190     19.0    959     0.00       0    69.8
 123   19:50   76.5    25   11.1   191     19.6    960     0.00       0    68.5
 123   20:00   76.0    24   10.4   198     19.6    960     0.00       0    67.3
 123   20:10   75.7    23    9.5   195     18.3    960     0.00       0    66.2
 123   20:20   75.6    20   11.4   191     21.5    960     0.00       0    65.3
 123   20:30   75.3    17   10.3   192     20.3    960     0.00       0    64.6
 123   20:40   75.1    14   12.7   194     22.1    960     0.00       0    64.0
 123   20:50   74.4    15   10.5   195     18.7    960     0.00       0    63.6
 123   21:00   73.7    16    8.8   196     17.8    960     0.00       0    63.0
 123   21:10   73.0    18    8.7   207     19.5    960     0.00       0    62.2
 123   21:20   72.4    18    8.0   208     16.9    960     0.00       0    61.4
 123   21:30   72.4    18    7.2   200     15.1    960     0.00       0    60.6
 123   21:40   72.3    19    7.0   197     13.0    960     0.00       0    59.9
 123   21:50   72.0    21    5.1   198     13.9    961     0.00       0    59.3
 123   22:00   71.5    22    3.9   112     12.5    961     0.00       0    58.6
 123   22:10   70.8    23    3.2    45      6.6    961     0.00       0    57.8
 123   22:20   70.1    24    2.1    48      4.1    961     0.00       0    56.8
 123   22:30   70.2    26    2.4    78      5.3    961     0.00       0    55.7
 123   22:40   69.7    28    1.5   167      5.6    962     0.00       0    54.8
 123   22:50   69.6    32    2.1   207      7.4    962     0.00       0    53.8
 123   23:00   69.3    33    2.4    70      4.7    962     0.00       0    53.1
 123   23:10   68.7    34    3.0   162     10.0    962     0.00       0    52.5
 123   23:20   68.3    35    3.8   183     11.5    962     0.00       0    52.0
 123   23:30   67.9    35    2.5   161      8.1    962     0.00       0    51.5
 123   23:40   68.1    34    4.7   170     13.4    962     0.00       0    51.0
 123   23:50   68.2    34    2.5   169      8.2    963     0.00       0    50.7
 124    0:00   67.9    34    2.4   172      9.2    963     0.00       0    50.4
 124    0:10   67.3    35    3.2   184      6.6    963     0.00       0    50.0
 124    0:20   66.9    35    2.4   171      7.6    963     0.00       0    49.6
 124    0:30   66.6    36    0.7   156      2.8    963     0.00       0    49.1
 124    0:40   66.0    36    1.7   167      5.4    963     0.00       0    48.3
 124    0:50   65.8    38    2.7   169     10.9    963     0.00       0    47.5
 124    1:00   65.5    40    4.0   165      9.5    963     0.00       0    46.9

Return to Shoshone, California graphs page.


Western Regional Climate Center,wrcc@dri.edu